Lake Luzerne, NY (12846)

2:35 AM EST on December 18, 2014 (GMT -0500)
Ron Fish Jr | Change Station
CLOSE
Current Station
Personal Weather Station
Location: Lake Luzerne, NY
Elevation: 709 ft
Nearby Weather Stations

Elev 709 ft 43.35 °N, 73.83 °W | Updated 2 seconds ago

Snow
Snow
33.6 °F
Feels Like 34 °F
N
0.0
Wind Variable Wind from North
Gusts 0.0 mph

Today
High -- | Low -- °F
--% Chance of Precip.
Yesterday
High -- | Low -- °F
Precip. -- in
7:22 AM 4:21 PM
Waning Crescent, 16% visible
Pressure 29.79 in
Visibility 7.0 miles
Clouds Few 500 ft
Mostly Cloudy 4200 ft
Overcast 5000 ft
Windchill 34 °F
Dew Point 33 °F
Humidity 98%
Rainfall 0.00 in
Snow Depth Not available.
UV 0 out of 12
Pollen .10 out of 12
Air Quality Not available.
Flu Activity Not available.
SPECI KGFL 180703Z AUTO 20008KT 7SM -SN FEW005 BKN042 OVC050 01/M01 A2979 RMK AO2 P0000 T00111006

More Conditions Fewer Conditions

Pressure 29.79 in
Visibility 7.0 miles
Clouds Few 500 ft
Mostly Cloudy 4200 ft
Overcast 5000 ft
Windchill 34 °F
Dew Point 33 °F
Humidity 98%
Rainfall 0.00 in
Snow Depth Not available.
UV 0 out of 12
Pollen .10 out of 12
Air Quality Not available.
Flu Activity Not available.
SPECI KGFL 180703Z AUTO 20008KT 7SM -SN FEW005 BKN042 OVC050 01/M01 A2979 RMK AO2 P0000 T00111006

More Conditions Fewer Conditions

10-Day Weather Forecast

Almanac

Astronomy

Dec. 18, 2014 Rise Set
Actual Time
Civil Twilight
Nautical Twilight
Astronomical Twilight
Moon
Length of Visible Light
Length of Day
Tomorrow will be .
, % of the Moon is Illuminated

Today's Extremes

State Highs State Lows

Community

WunderPhotos

Upload Photos

1,778,900 photos uploaded!

WunderBlogs® & News

Nearby

Air Quality

  Air Quality AQ Index Pollutant
Not available.

Snow Depth

Station Depth Elevation

Earthquake Activity

City Distance Mag. Time & Date
Minimum magnitude displayed is 2.5.

Coastal Water Temperatures

Place Temperature

Nearby Weather Stations